Time;durP1;ratioP1;P1;durP2;ratioP2;P2;SDS_P1;SDS_P2;PMS_P1;PMS_P2;Temp;Humidity;BMP_temperature;BMP_pressure;BME280_temperature;BME280_humidity;BME280_pressure;Samples;Min_cycle;Max_cycle;Signal;HPM_P1;HPM_P2
2022/04/27 00:02:01;;;;;;;7.28;6.10;;;12.30;82.20;;;;;;5033557;28;20032;-56
2022/04/27 00:04:45;;;;;;;7.95;6.30;;;12.30;83.10;;;;;;5034270;28;20116;-63
2022/04/27 00:07:30;;;;;;;9.77;6.43;;;12.20;83.50;;;;;;5015569;28;20083;-60
2022/04/27 00:10:14;;;;;;;8.32;6.72;;;12.30;83.60;;;;;;5035731;28;20083;-61
2022/04/27 00:12:59;;;;;;;10.50;7.32;;;12.10;83.90;;;;;;5049526;28;20417;-65
2022/04/27 00:15:44;;;;;;;10.85;7.03;;;12.30;82.70;;;;;;5031956;28;20187;-62
2022/04/27 00:18:28;;;;;;;9.33;6.90;;;12.30;82.30;;;;;;5049618;28;20039;-59
2022/04/27 00:21:12;;;;;;;8.15;6.68;;;12.10;83.20;;;;;;5036606;28;20270;-61
2022/04/27 00:23:56;;;;;;;9.73;6.85;;;12.10;83.00;;;;;;5035427;28;20036;-57
2022/04/27 00:26:41;;;;;;;8.00;6.57;;;12.00;83.30;;;;;;5036075;28;20035;-58
2022/04/27 00:29:25;;;;;;;8.60;6.53;;;12.00;83.40;;;;;;5034665;28;20400;-69
2022/04/27 00:32:10;;;;;;;8.18;6.72;;;12.00;83.40;;;;;;5043521;28;20043;-62
2022/04/27 00:34:54;;;;;;;9.85;7.03;;;12.00;83.60;;;;;;5034910;28;20036;-61
2022/04/27 00:37:38;;;;;;;7.75;6.55;;;12.10;84.30;;;;;;5036887;28;20071;-60
2022/04/27 00:40:22;;;;;;;9.27;6.40;;;12.10;83.90;;;;;;5034899;28;20043;-60
2022/04/27 00:43:06;;;;;;;7.57;6.83;;;12.10;83.80;;;;;;5050387;28;20102;-60
2022/04/27 00:45:50;;;;;;;7.40;6.70;;;12.20;83.30;;;;;;5049601;28;20094;-60
2022/04/27 00:48:36;;;;;;;13.85;6.45;;;12.20;83.10;;;;;;5035661;28;20047;-63
2022/04/27 00:51:25;;;;;;;7.50;5.75;;;12.20;83.40;;;;;;5049701;28;20403;-59
2022/04/27 00:54:10;;;;;;;7.50;6.72;;;12.20;83.10;;;;;;5049520;28;20078;-60
2022/04/27 00:56:55;;;;;;;11.07;6.88;;;12.10;83.40;;;;;;5033207;28;20032;-60
2022/04/27 00:59:39;;;;;;;11.75;7.05;;;12.10;83.70;;;;;;5033741;28;20091;-62
2022/04/27 01:02:24;;;;;;;7.90;6.97;;;12.10;83.80;;;;;;5034195;28;20032;-61
2022/04/27 01:05:10;;;;;;;10.17;7.03;;;11.90;84.30;;;;;;5031998;28;20098;-59
2022/04/27 01:07:59;;;;;;;9.98;7.15;;;11.90;84.70;;;;;;5050224;28;20146;-58
2022/04/27 01:10:46;;;;;;;8.35;6.18;;;11.80;85.10;;;;;;5049086;28;20135;-61
2022/04/27 01:13:30;;;;;;;10.73;6.72;;;11.90;85.30;;;;;;5034412;28;20044;-60
2022/04/27 01:16:15;;;;;;;8.25;7.43;;;11.80;85.70;;;;;;5034688;28;20048;-61
2022/04/27 01:18:59;;;;;;;7.83;6.97;;;11.80;85.90;;;;;;5015544;28;20037;-61
2022/04/27 01:21:43;;;;;;;10.63;7.60;;;11.80;86.20;;;;;;5036120;28;20120;-60
2022/04/27 01:24:28;;;;;;;9.60;7.55;;;11.80;86.50;;;;;;5034540;28;20223;-56
2022/04/27 01:27:12;;;;;;;10.88;7.05;;;11.80;86.90;;;;;;5035004;28;20045;-61
2022/04/27 01:29:56;;;;;;;9.13;6.90;;;11.70;87.10;;;;;;5048340;28;20163;-60
2022/04/27 01:32:40;;;;;;;9.85;7.50;;;11.70;87.60;;;;;;5035660;28;20271;-61
2022/04/27 01:35:24;;;;;;;8.48;6.70;;;11.70;88.20;;;;;;5035321;28;20048;-61
2022/04/27 01:38:08;;;;;;;9.20;6.97;;;11.70;88.60;;;;;;5049915;28;20086;-60
2022/04/27 01:40:54;;;;;;;9.00;7.50;;;11.70;88.60;;;;;;5036504;28;20052;-59
2022/04/27 01:43:39;;;;;;;9.52;7.25;;;11.70;89.00;;;;;;5034339;28;20035;-59
2022/04/27 01:46:24;;;;;;;11.55;7.90;;;11.60;89.50;;;;;;5050953;28;20147;-57
2022/04/27 01:49:08;;;;;;;11.77;7.13;;;11.70;89.90;;;;;;5050912;28;20056;-59
2022/04/27 01:54:55;;;;;;;8.93;7.00;;;11.60;90.20;;;;;;5018845;28;20553;-61
2022/04/27 01:57:40;;;;;;;8.05;7.25;;;11.70;90.20;;;;;;5019755;28;20425;-61
2022/04/27 02:00:24;;;;;;;11.20;8.40;;;11.70;90.40;;;;;;5051648;28;20504;-60
2022/04/27 02:03:08;;;;;;;11.13;8.73;;;11.60;90.60;;;;;;5050936;28;20401;-61
2022/04/27 02:05:52;;;;;;;10.63;8.88;;;11.50;90.80;;;;;;5050642;28;20128;-60
2022/04/27 02:08:37;;;;;;;9.75;8.23;;;11.60;91.00;;;;;;5035332;28;20067;-60
2022/04/27 02:11:24;;;;;;;10.68;7.82;;;11.60;91.10;;;;;;5050761;28;20048;-60
2022/04/27 02:14:10;;;;;;;9.07;7.78;;;11.60;91.30;;;;;;5050635;28;20102;-60
2022/04/27 02:16:54;;;;;;;8.52;7.63;;;11.60;91.40;;;;;;5050455;28;20036;-59
2022/04/27 02:19:38;;;;;;;9.90;8.18;;;11.60;91.60;;;;;;5022184;28;20036;-58
2022/04/27 02:22:22;;;;;;;13.10;8.03;;;11.60;91.70;;;;;;5050855;28;20083;-57
2022/04/27 02:25:07;;;;;;;10.48;9.35;;;11.60;92.10;;;;;;5023615;28;20044;-61
2022/04/27 02:27:51;;;;;;;10.57;8.25;;;11.60;92.30;;;;;;5041669;28;20048;-61
2022/04/27 02:30:35;;;;;;;8.93;7.43;;;11.50;92.50;;;;;;5016747;28;20074;-61
2022/04/27 02:33:19;;;;;;;9.80;8.57;;;11.50;92.50;;;;;;5039426;28;20404;-61
2022/04/27 02:36:03;;;;;;;10.07;8.03;;;11.60;92.50;;;;;;5035256;28;20516;-59
2022/04/27 02:38:47;;;;;;;10.63;8.20;;;11.60;92.60;;;;;;5021522;28;20116;-57
2022/04/27 02:41:31;;;;;;;11.55;8.15;;;11.60;92.70;;;;;;5036012;28;20147;-62
2022/04/27 02:44:15;;;;;;;11.80;8.10;;;11.40;92.80;;;;;;5035818;28;20040;-59
2022/04/27 02:46:59;;;;;;;9.30;8.40;;;11.40;92.70;;;;;;5042240;28;20040;-59
2022/04/27 02:52:50;;;;;;;9.70;8.30;;;11.30;92.90;;;;;;5041369;28;20134;-62
2022/04/27 02:55:34;;;;;;;9.88;8.40;;;11.20;93.00;;;;;;5053193;28;20412;-59
2022/04/27 02:58:19;;;;;;;9.47;8.47;;;11.20;93.00;;;;;;5019108;28;20037;-60
2022/04/27 03:01:03;;;;;;;10.63;8.33;;;11.20;93.20;;;;;;5023193;28;20731;-59
2022/04/27 03:03:47;;;;;;;12.10;8.10;;;11.10;93.20;;;;;;5053544;28;20270;-61
2022/04/27 03:06:31;;;;;;;10.52;8.32;;;11.20;93.20;;;;;;5039497;28;20075;-61
2022/04/27 03:09:15;;;;;;;10.60;8.15;;;11.10;93.50;;;;;;5053955;28;20040;-59
2022/04/27 03:12:00;;;;;;;10.00;8.43;;;11.10;93.60;;;;;;5053852;28;20408;-62
2022/04/27 03:14:44;;;;;;;9.88;8.52;;;11.20;93.50;;;;;;5053366;28;20056;-61
2022/04/27 03:17:29;;;;;;;13.88;9.52;;;11.20;93.70;;;;;;5024535;28;20401;-57
2022/04/27 03:20:13;;;;;;;11.17;8.77;;;11.00;93.80;;;;;;5018660;28;20041;-59
2022/04/27 03:22:57;;;;;;;14.93;9.43;;;11.10;94.00;;;;;;5021345;28;20123;-57
2022/04/27 03:25:41;;;;;;;10.95;9.07;;;11.10;94.00;;;;;;5039661;28;20044;-59
2022/04/27 03:28:26;;;;;;;15.32;8.90;;;11.10;94.10;;;;;;5053863;28;20616;-58
2022/04/27 03:31:10;;;;;;;10.68;9.50;;;11.20;94.00;;;;;;5024277;28;20036;-59
2022/04/27 03:33:54;;;;;;;9.70;8.13;;;11.10;93.90;;;;;;5038630;28;20099;-59
2022/04/27 03:36:38;;;;;;;14.13;9.38;;;11.10;93.90;;;;;;5038239;28;20040;-60
2022/04/27 03:39:22;;;;;;;12.85;9.00;;;11.20;94.10;;;;;;5038785;28;20087;-60
2022/04/27 03:42:06;;;;;;;11.13;8.80;;;11.20;94.30;;;;;;5037814;28;20075;-61
2022/04/27 03:44:51;;;;;;;13.75;9.10;;;11.10;94.30;;;;;;5022135;28;20059;-60
2022/04/27 03:47:35;;;;;;;11.30;8.27;;;11.10;94.30;;;;;;5040097;28;20061;-61
2022/04/27 03:50:19;;;;;;;10.35;8.30;;;11.20;94.20;;;;;;5033436;28;20044;-59
2022/04/27 03:53:03;;;;;;;12.45;8.73;;;11.10;93.90;;;;;;5019112;28;20134;-60
2022/04/27 03:55:47;;;;;;;10.55;8.15;;;11.10;94.20;;;;;;5020080;28;20044;-60
2022/04/27 03:58:32;;;;;;;11.32;8.57;;;11.10;94.10;;;;;;5037590;28;20111;-60
2022/04/27 04:01:16;;;;;;;;;;;11.00;94.30;;;;;;5038596;28;20051;-59
2022/04/27 04:04:00;;;;;;;12.57;8.82;;;11.00;94.20;;;;;;5053351;28;19954;-61
2022/04/27 04:06:44;;;;;;;10.52;8.55;;;10.80;94.30;;;;;;5052560;28;20040;-59
2022/04/27 04:09:28;;;;;;;15.57;8.38;;;10.80;94.30;;;;;;5053008;28;20400;-60
2022/04/27 04:12:13;;;;;;;12.60;8.30;;;10.70;94.30;;;;;;5037432;28;20515;-62
2022/04/27 04:14:57;;;;;;;10.60;8.43;;;10.70;94.30;;;;;;5052699;28;20107;-58
2022/04/27 04:17:45;;;;;;;9.98;8.95;;;10.70;94.30;;;;;;5017667;28;20052;-59
2022/04/27 04:20:29;;;;;;;12.00;9.15;;;10.50;94.70;;;;;;5018994;28;20453;-61
2022/04/27 04:23:13;;;;;;;10.80;8.93;;;10.50;94.90;;;;;;5018007;28;20457;-60
2022/04/27 04:29:00;;;;;;;16.98;8.35;;;10.40;94.70;;;;;;5053168;28;20040;-58
2022/04/27 04:31:44;;;;;;;11.55;9.10;;;10.50;94.70;;;;;;5037276;28;20040;-61
2022/04/27 04:34:28;;;;;;;11.02;8.73;;;10.50;94.70;;;;;;5052300;28;20036;-57
2022/04/27 04:37:12;;;;;;;9.37;8.37;;;10.50;94.70;;;;;;5036966;28;20039;-60
2022/04/27 04:39:56;;;;;;;12.18;8.57;;;10.50;94.60;;;;;;5052431;28;20113;-59
2022/04/27 04:42:40;;;;;;;12.30;8.97;;;10.50;94.70;;;;;;5053302;28;20167;-61
2022/04/27 04:45:25;;;;;;;13.48;8.80;;;10.50;94.60;;;;;;5053655;28;20040;-61
2022/04/27 04:48:09;;;;;;;12.13;9.20;;;10.40;94.90;;;;;;5033121;28;20064;-60
2022/04/27 04:50:53;;;;;;;12.73;10.25;;;10.30;95.00;;;;;;5015799;28;20184;-60
2022/04/27 04:53:37;;;;;;;15.70;9.63;;;10.20;95.20;;;;;;5031920;28;20633;-60
2022/04/27 04:56:21;;;;;;;11.45;8.93;;;10.20;95.30;;;;;;5003307;28;20147;-60
2022/04/27 04:59:05;;;;;;;14.27;9.40;;;10.10;95.40;;;;;;5019194;28;20035;-61
2022/04/27 05:01:49;;;;;;;14.63;8.90;;;10.00;95.70;;;;;;5037393;28;20048;-60
2022/04/27 05:04:33;;;;;;;13.10;8.57;;;9.90;95.90;;;;;;5024493;28;20036;-60
2022/04/27 05:07:20;;;;;;;17.65;9.88;;;9.90;96.10;;;;;;5037311;28;20105;-58
2022/04/27 05:10:05;;;;;;;13.70;9.57;;;9.80;96.30;;;;;;5052601;28;20405;-57
2022/04/27 05:12:50;;;;;;;14.57;10.38;;;9.90;96.40;;;;;;5037644;28;20511;-59
2022/04/27 05:15:34;;;;;;;15.43;10.00;;;9.70;96.60;;;;;;5036117;28;20623;-61
2022/04/27 05:18:18;;;;;;;22.33;12.15;;;9.70;96.80;;;;;;5036971;28;20039;-61
2022/04/27 05:21:02;;;;;;;16.10;12.02;;;9.70;97.00;;;;;;5052073;28;20163;-61
2022/04/27 05:23:46;;;;;;;13.30;11.50;;;9.50;97.30;;;;;;5051991;28;20581;-58
2022/04/27 05:26:31;;;;;;;15.50;12.13;;;9.50;97.30;;;;;;5016374;28;20511;-59
2022/04/27 05:32:18;;;;;;;17.17;13.32;;;9.50;97.80;;;;;;5052439;28;20096;-59
2022/04/27 05:35:02;;;;;;;16.20;13.15;;;9.50;98.50;;;;;;5036017;28;20405;-57
2022/04/27 05:37:47;;;;;;;18.02;13.85;;;9.40;98.70;;;;;;5023310;28;20044;-60
2022/04/27 05:40:31;;;;;;;18.85;12.50;;;9.50;98.70;;;;;;5036559;28;20086;-61
2022/04/27 05:43:16;;;;;;;17.60;12.98;;;9.50;99.00;;;;;;5036201;28;20616;-59
2022/04/27 05:46:01;;;;;;;18.77;13.20;;;9.50;99.20;;;;;;5021485;28;20098;-62
2022/04/27 05:48:45;;;;;;;17.52;13.73;;;9.40;99.30;;;;;;5036654;28;20036;-62
2022/04/27 05:51:29;;;;;;;17.88;14.65;;;9.60;99.30;;;;;;5036864;28;20090;-63
2022/04/27 05:54:14;;;;;;;18.98;14.18;;;9.70;99.10;;;;;;5052220;28;20681;-59
2022/04/27 05:56:58;;;;;;;;;;;9.70;99.10;;;;;;5054137;28;20032;-60
2022/04/27 05:59:43;;;;;;;16.48;13.25;;;9.80;98.90;;;;;;5038758;28;19999;-63
2022/04/27 06:02:28;;;;;;;16.58;13.55;;;9.90;98.90;;;;;;5031933;28;20040;-60
2022/04/27 06:05:13;;;;;;;16.50;13.45;;;10.00;98.60;;;;;;5048883;28;20052;-61
2022/04/27 06:07:57;;;;;;;19.85;14.18;;;10.10;98.30;;;;;;5063887;28;20047;-61
2022/04/27 06:10:41;;;;;;;19.20;13.85;;;10.10;98.70;;;;;;5036746;28;20163;-58
2022/04/27 06:13:26;;;;;;;19.35;14.55;;;10.10;98.60;;;;;;5036600;28;20052;-61
2022/04/27 06:16:10;;;;;;;16.60;13.90;;;10.10;98.50;;;;;;5036477;28;20036;-61
2022/04/27 06:18:54;;;;;;;18.15;13.63;;;10.20;98.40;;;;;;5022183;28;20091;-59
2022/04/27 06:21:38;;;;;;;20.98;13.90;;;10.20;98.30;;;;;;5036275;28;20060;-61
2022/04/27 06:24:22;;;;;;;17.75;14.25;;;10.20;98.20;;;;;;5054871;28;20036;-61
2022/04/27 06:27:06;;;;;;;20.83;14.25;;;10.30;98.20;;;;;;5039297;28;20094;-61
2022/04/27 06:29:50;;;;;;;16.08;12.80;;;10.50;97.60;;;;;;5055518;28;20036;-60
2022/04/27 06:32:35;;;;;;;15.67;13.47;;;10.50;97.50;;;;;;5020579;28;20052;-62
2022/04/27 06:35:19;;;;;;;18.75;13.32;;;10.60;97.30;;;;;;5023157;28;20040;-62
2022/04/27 06:38:04;;;;;;;17.42;13.25;;;10.70;97.20;;;;;;5055110;28;20441;-59
2022/04/27 06:40:48;;;;;;;17.10;13.48;;;10.80;97.00;;;;;;5055000;28;20535;-62
2022/04/27 06:43:32;;;;;;;15.25;12.73;;;11.00;96.90;;;;;;5025486;28;20616;-59
2022/04/27 06:46:16;;;;;;;19.02;13.48;;;11.10;96.70;;;;;;5038781;28;20099;-62
2022/04/27 06:49:01;;;;;;;15.43;13.23;;;11.30;96.60;;;;;;5025765;28;20539;-60
2022/04/27 06:51:44;;;;;;;16.52;12.35;;;11.50;96.30;;;;;;5039181;28;20607;-62
2022/04/27 06:54:29;;;;;;;18.75;12.05;;;11.70;96.00;;;;;;5054225;28;20060;-61
2022/04/27 06:57:13;;;;;;;16.55;12.85;;;12.00;95.60;;;;;;5054840;28;20056;-59
2022/04/27 06:59:57;;;;;;;12.93;11.52;;;12.10;95.40;;;;;;5025889;28;20175;-61
2022/04/27 07:02:41;;;;;;;13.80;10.82;;;12.30;94.30;;;;;;5037942;28;20040;-57
2022/04/27 07:05:26;;;;;;;11.43;10.20;;;12.50;94.00;;;;;;5023231;28;20116;-58
2022/04/27 07:08:10;;;;;;;12.50;10.88;;;12.70;92.90;;;;;;5039183;28;20043;-60
2022/04/27 07:10:55;;;;;;;13.20;10.77;;;12.70;92.80;;;;;;5052965;28;20052;-57
2022/04/27 07:13:39;;;;;;;13.63;11.55;;;12.80;92.80;;;;;;5039148;28;20052;-59
2022/04/27 07:16:23;;;;;;;14.48;11.13;;;12.80;92.30;;;;;;5019749;28;20075;-60
2022/04/27 07:19:08;;;;;;;15.20;10.93;;;12.90;91.50;;;;;;5050801;28;20063;-61
2022/04/27 07:21:52;;;;;;;13.55;9.25;;;13.00;90.80;;;;;;5064954;28;20282;-58
2022/04/27 07:24:39;;;;;;;12.15;9.18;;;13.00;90.20;;;;;;5055441;28;20083;-60
2022/04/27 07:27:25;;;;;;;12.32;8.93;;;13.10;90.00;;;;;;5039773;28;20113;-59
2022/04/27 07:30:09;;;;;;;;;;;13.40;90.00;;;;;;5053928;28;20124;-62
2022/04/27 07:32:53;;;;;;;13.75;10.15;;;13.40;89.50;;;;;;5038528;28;19967;-61
2022/04/27 07:35:38;;;;;;;14.55;10.23;;;13.60;89.80;;;;;;5035338;28;20504;-61
2022/04/27 07:38:22;;;;;;;12.43;10.00;;;13.70;90.10;;;;;;5052890;28;20098;-64
2022/04/27 07:41:07;;;;;;;11.43;9.90;;;13.70;89.20;;;;;;5053675;28;20116;-59
2022/04/27 07:43:51;;;;;;;15.52;10.80;;;13.50;89.80;;;;;;5051508;28;20915;-60
2022/04/27 07:46:35;;;;;;;12.20;9.40;;;13.40;90.30;;;;;;5037702;28;20720;-59
2022/04/27 07:49:20;;;;;;;17.13;11.47;;;13.20;89.90;;;;;;5034084;28;20099;-59
2022/04/27 07:52:04;;;;;;;;;;;13.10;90.30;;;;;;5034054;28;20278;-61
2022/04/27 07:54:49;;;;;;;14.90;9.75;;;12.90;90.50;;;;;;5053473;28;19963;-62
2022/04/27 07:57:33;;;;;;;12.70;9.48;;;12.80;90.70;;;;;;5037981;28;20528;-60
2022/04/27 08:00:18;;;;;;;16.27;11.15;;;12.80;90.40;;;;;;5039719;28;20075;-58
2022/04/27 08:03:03;;;;;;;16.33;11.02;;;12.80;90.90;;;;;;5038631;28;20036;-60
2022/04/27 08:05:50;;;;;;;12.57;10.50;;;12.80;90.80;;;;;;5038231;28;20136;-61
2022/04/27 08:08:35;;;;;;;14.07;10.63;;;12.90;90.80;;;;;;5038233;28;20043;-62
2022/04/27 08:11:21;;;;;;;15.80;10.95;;;13.00;90.30;;;;;;5038606;28;20044;-61
2022/04/27 08:14:06;;;;;;;12.10;10.52;;;13.20;89.70;;;;;;5037837;28;20048;-58
2022/04/27 08:16:51;;;;;;;13.00;11.05;;;13.30;89.20;;;;;;5043044;28;20403;-59
2022/04/27 08:19:35;;;;;;;12.07;10.80;;;13.40;89.00;;;;;;5053930;28;20044;-61
2022/04/27 08:22:19;;;;;;;16.15;10.95;;;13.50;88.40;;;;;;5033154;28;20036;-61
2022/04/27 08:25:04;;;;;;;14.83;9.73;;;13.60;87.70;;;;;;5048902;28;20150;-60
2022/04/27 08:27:48;;;;;;;12.35;10.00;;;13.70;87.10;;;;;;5033968;28;20060;-62
2022/04/27 08:30:37;;;;;;;14.90;10.33;;;13.90;87.00;;;;;;5048663;28;20554;-59
2022/04/27 08:33:21;;;;;;;16.88;9.93;;;14.20;85.90;;;;;;5053881;28;20267;-60
2022/04/27 08:36:06;;;;;;;13.77;9.60;;;14.30;84.00;;;;;;5054675;28;20043;-61
2022/04/27 08:38:51;;;;;;;10.35;9.10;;;14.40;83.30;;;;;;5053982;28;20033;-61
2022/04/27 08:41:35;;;;;;;14.95;11.10;;;14.60;82.90;;;;;;5038511;28;20071;-61
2022/04/27 08:44:20;;;;;;;15.00;9.73;;;14.50;82.30;;;;;;5038925;28;20089;-61
2022/04/27 08:47:07;;;;;;;13.82;8.80;;;14.90;83.10;;;;;;5052751;28;20044;-60
2022/04/27 08:49:52;;;;;;;12.68;8.27;;;15.00;79.00;;;;;;5023509;28;20699;-60
2022/04/27 08:52:39;;;;;;;10.52;8.95;;;15.10;77.20;;;;;;5037660;28;20508;-61
2022/04/27 08:55:23;;;;;;;12.65;9.35;;;14.90;77.90;;;;;;5051070;28;20189;-62
2022/04/27 08:58:13;;;;;;;20.45;9.75;;;15.00;78.80;;;;;;5037318;28;20043;-61
2022/04/27 09:00:59;;;;;;;15.52;10.02;;;15.30;78.60;;;;;;5052679;28;20122;-60
2022/04/27 09:03:44;;;;;;;13.85;10.15;;;15.40;78.70;;;;;;5048305;28;20043;-59
2022/04/27 09:06:38;;;;;;;12.25;8.88;;;15.60;77.70;;;;;;5036908;28;20090;-61
2022/04/27 09:09:36;;;;;;;15.73;9.10;;;15.70;77.80;;;;;;5051921;28;20116;-63
2022/04/27 09:12:20;;;;;;;9.75;8.38;;;15.60;76.70;;;;;;5051535;28;20036;-62
2022/04/27 09:15:07;;;;;;;21.23;10.05;;;15.60;75.60;;;;;;5026246;28;20040;-63
2022/04/27 09:21:01;;;;;;;12.73;8.52;;;15.50;76.80;;;;;;5051712;28;20067;-60
2022/04/27 09:23:48;;;;;;;17.42;10.18;;;15.70;75.90;;;;;;5051244;28;20056;-60
2022/04/27 09:26:32;;;;;;;14.73;9.77;;;15.90;74.50;;;;;;5037255;28;20106;-59
2022/04/27 09:29:26;;;;;;;12.50;8.97;;;15.60;75.00;;;;;;5027243;28;20079;-59
2022/04/27 09:32:17;;;;;;;11.20;9.27;;;15.70;75.50;;;;;;5043471;28;20279;-60
2022/04/27 09:35:03;;;;;;;11.10;8.25;;;15.70;75.90;;;;;;5051433;28;20067;-61
2022/04/27 09:37:47;;;;;;;10.75;8.85;;;15.90;74.80;;;;;;5061712;28;20049;-60
2022/04/27 09:40:46;;;;;;;11.13;8.88;;;15.90;75.00;;;;;;5043037;28;20041;-59
2022/04/27 09:43:42;;;;;;;9.70;8.50;;;16.00;74.10;;;;;;5058696;28;20047;-61
2022/04/27 09:46:26;;;;;;;13.13;9.88;;;16.10;74.10;;;;;;5036293;28;20045;-61
2022/04/27 09:49:11;;;;;;;11.30;7.80;;;16.20;74.20;;;;;;5036125;28;20106;-60
2022/04/27 09:51:56;;;;;;;10.18;8.45;;;16.20;73.40;;;;;;5051286;28;20413;-60
2022/04/27 09:54:42;;;;;;;11.43;8.05;;;16.30;72.90;;;;;;5051379;28;20048;-62
2022/04/27 09:57:28;;;;;;;9.88;8.10;;;16.30;72.70;;;;;;5050488;28;20127;-62
2022/04/27 10:00:12;;;;;;;12.40;8.70;;;16.30;72.70;;;;;;5031995;28;20060;-60
2022/04/27 10:02:58;;;;;;;11.20;8.30;;;16.20;72.40;;;;;;5035485;28;20095;-61
2022/04/27 10:05:43;;;;;;;10.00;8.10;;;16.30;71.60;;;;;;5048090;28;20554;-60
2022/04/27 10:08:28;;;;;;;11.18;8.02;;;16.00;72.00;;;;;;5018945;28;20118;-60
2022/04/27 10:11:12;;;;;;;11.52;8.68;;;16.20;72.30;;;;;;5051537;28;20131;-61
2022/04/27 10:13:57;;;;;;;10.32;8.50;;;16.40;72.00;;;;;;5051553;28;20459;-60
2022/04/27 10:16:41;;;;;;;9.93;8.00;;;16.40;71.10;;;;;;5037246;28;20052;-61
2022/04/27 10:19:25;;;;;;;8.95;7.75;;;16.50;70.20;;;;;;5035458;28;20266;-60
2022/04/27 10:22:25;;;;;;;10.15;8.32;;;16.50;70.30;;;;;;5050853;28;20090;-60
2022/04/27 10:25:11;;;;;;;10.25;7.93;;;16.40;71.20;;;;;;5051974;28;20080;-60
2022/04/27 10:27:55;;;;;;;9.40;8.48;;;16.40;71.50;;;;;;5052293;28;20163;-59
2022/04/27 10:30:43;;;;;;;11.93;9.20;;;16.60;71.30;;;;;;5035062;28;20036;-62
2022/04/27 10:33:47;;;;;;;8.68;7.18;;;16.60;71.30;;;;;;5051380;28;20278;-59
2022/04/27 10:36:35;;;;;;;10.85;8.35;;;16.70;70.80;;;;;;5024444;28;20036;-62
2022/04/27 10:39:21;;;;;;;8.38;7.45;;;16.70;70.30;;;;;;5050983;28;20035;-62
2022/04/27 10:42:05;;;;;;;10.70;7.53;;;16.70;70.60;;;;;;5035958;28;20091;-61
2022/04/27 10:44:55;;;;;;;10.70;7.63;;;16.80;71.50;;;;;;5050898;28;20040;-62
2022/04/27 10:47:41;;;;;;;8.55;7.40;;;17.00;72.30;;;;;;5034201;28;20048;-62
2022/04/27 10:50:30;;;;;;;10.10;7.18;;;17.20;71.30;;;;;;5050671;28;20587;-62
2022/04/27 10:53:20;;;;;;;11.75;7.45;;;17.30;72.30;;;;;;5015492;28;20071;-61
2022/04/27 10:56:23;;;;;;;7.68;6.85;;;17.60;70.30;;;;;;5037275;28;20044;-60
2022/04/27 10:59:44;;;;;;;8.88;7.47;;;17.70;70.40;;;;;;5051394;28;20036;-61
2022/04/27 11:02:39;;;;;;;9.45;7.93;;;17.90;69.50;;;;;;5042603;28;20028;-61
2022/04/27 11:05:23;;;;;;;8.35;7.40;;;17.40;68.80;;;;;;5058008;28;20160;-61
2022/04/27 11:08:15;;;;;;;;;;;17.30;69.40;;;;;;5044312;28;20043;-61
2022/04/27 11:11:07;;;;;;;9.48;8.18;;;17.40;70.30;;;;;;5054991;28;19911;-61
2022/04/27 11:13:57;;;;;;;10.68;6.95;;;17.50;69.20;;;;;;5054380;28;20044;-61
2022/04/27 11:16:49;;;;;;;11.52;8.32;;;17.50;71.10;;;;;;5053805;28;20052;-61
2022/04/27 11:19:34;;;;;;;10.07;7.13;;;17.60;68.00;;;;;;5051788;28;20572;-62
2022/04/27 11:22:19;;;;;;;13.70;10.07;;;17.70;71.00;;;;;;5038632;28;20519;-62
2022/04/27 11:25:06;;;;;;;11.05;8.48;;;17.90;69.40;;;;;;5053839;28;20094;-66
2022/04/27 11:27:51;;;;;;;11.63;10.43;;;17.70;67.00;;;;;;5038532;28;20106;-62
2022/04/27 11:30:35;;;;;;;9.70;8.05;;;17.60;67.10;;;;;;5025295;28;20110;-67
2022/04/27 11:33:21;;;;;;;;;;;17.60;67.80;;;;;;5038794;28;20055;-61
2022/04/27 11:36:05;;;;;;;37.17;10.52;;;17.90;67.90;;;;;;5053059;28;19951;-61
2022/04/27 11:38:51;;;;;;;11.35;7.95;;;18.10;67.80;;;;;;5052737;28;20492;-63
2022/04/27 11:41:36;;;;;;;11.07;8.00;;;18.30;66.80;;;;;;5053255;28;20562;-62
2022/04/27 11:44:21;;;;;;;8.07;7.28;;;18.30;65.30;;;;;;5024014;28;20512;-61
2022/04/27 11:47:28;;;;;;;15.02;11.50;;;18.00;66.00;;;;;;5053383;28;20454;-63
2022/04/27 11:50:17;;;;;;;18.60;9.90;;;18.10;66.10;;;;;;5038596;28;20086;-62
2022/04/27 11:53:08;;;;;;;7.63;6.78;;;18.20;65.20;;;;;;5053368;28;20040;-62
2022/04/27 11:55:53;;;;;;;9.85;7.40;;;18.10;64.60;;;;;;5053140;28;20032;-61
2022/04/27 11:58:38;;;;;;;8.52;7.72;;;17.80;63.40;;;;;;5038451;28;20499;-64
2022/04/27 12:01:23;;;;;;;11.88;7.53;;;17.70;64.20;;;;;;5038458;28;20063;-62
2022/04/27 12:04:07;;;;;;;8.43;6.80;;;17.90;64.50;;;;;;5037953;28;20039;-61
2022/04/27 12:06:51;;;;;;;12.32;7.90;;;18.00;65.30;;;;;;5024451;28;20090;-62
2022/04/27 12:09:35;;;;;;;12.27;7.85;;;18.20;65.70;;;;;;5038133;28;20048;-61
2022/04/27 12:12:19;;;;;;;7.80;7.10;;;18.20;65.90;;;;;;5038296;28;20086;-62
2022/04/27 12:15:12;;;;;;;9.75;6.68;;;17.70;63.70;;;;;;5037887;28;20082;-62
2022/04/27 12:17:58;;;;;;;7.90;6.32;;;17.30;63.60;;;;;;5053540;28;20035;-60
2022/04/27 12:20:48;;;;;;;8.80;6.70;;;17.30;64.90;;;;;;5038020;28;20032;-61
2022/04/27 12:23:32;;;;;;;8.10;6.97;;;17.30;63.50;;;;;;5053713;28;20032;-60
2022/04/27 12:26:17;;;;;;;10.67;6.73;;;17.20;63.50;;;;;;5054349;28;20515;-61
2022/04/27 12:29:06;;;;;;;;;;;17.40;64.10;;;;;;5053622;28;20821;-65
2022/04/27 12:31:56;;;;;;;7.53;6.32;;;17.70;65.50;;;;;;5053689;28;19951;-62
2022/04/27 12:37:46;;;;;;;8.00;6.55;;;18.00;64.10;;;;;;5040450;28;20091;-60
2022/04/27 12:40:32;;;;;;;7.47;6.43;;;18.20;64.40;;;;;;5053429;28;20040;-62
2022/04/27 12:43:17;;;;;;;8.38;6.78;;;18.30;63.40;;;;;;5053404;28;20075;-61
2022/04/27 12:46:10;;;;;;;7.80;5.90;;;18.70;62.50;;;;;;5052773;28;20108;-62
2022/04/27 12:49:05;;;;;;;8.10;5.55;;;18.50;59.60;;;;;;5036363;28;20129;-63
2022/04/27 12:51:50;;;;;;;9.35;6.35;;;18.50;58.80;;;;;;5037991;28;20051;-62
2022/04/27 12:54:37;;;;;;;7.05;6.25;;;18.80;59.10;;;;;;5037550;28;20036;-62
2022/04/27 12:57:22;;;;;;;8.07;6.03;;;18.80;58.60;;;;;;5024373;28;20099;-61
2022/04/27 13:00:08;;;;;;;9.63;6.47;;;18.70;58.70;;;;;;5037266;28;20431;-62
2022/04/27 13:02:52;;;;;;;10.98;6.13;;;18.70;58.30;;;;;;5052219;28;20040;-62
2022/04/27 13:05:37;;;;;;;7.07;5.55;;;18.50;58.40;;;;;;5051882;28;20523;-61
2022/04/27 13:08:21;;;;;;;6.28;5.40;;;18.60;58.20;;;;;;5050451;28;20116;-62
2022/04/27 13:14:09;;;;;;;7.15;5.93;;;19.50;55.60;;;;;;5049258;28;20103;-62
2022/04/27 13:16:53;;;;;;;8.70;5.40;;;19.50;55.80;;;;;;5036267;28;20447;-61
2022/04/27 13:19:38;;;;;;;11.50;6.18;;;19.70;55.00;;;;;;5036653;28;20270;-61
2022/04/27 13:22:24;;;;;;;7.90;6.53;;;19.60;56.00;;;;;;5051783;28;20028;-61
2022/04/27 13:25:09;;;;;;;7.70;6.88;;;19.50;56.70;;;;;;5031613;28;20041;-62
2022/04/27 13:27:53;;;;;;;7.00;6.00;;;19.20;57.00;;;;;;5031813;28;20163;-62
2022/04/27 13:30:37;;;;;;;7.28;6.10;;;19.40;57.10;;;;;;5003121;28;20052;-62
2022/04/27 13:33:22;;;;;;;;;;;19.50;57.60;;;;;;5036097;28;20063;-62
2022/04/27 13:36:06;;;;;;;9.20;6.10;;;19.80;57.20;;;;;;5050955;28;20004;-63
2022/04/27 13:38:50;;;;;;;8.98;6.25;;;19.80;56.40;;;;;;5022632;28;20094;-60
2022/04/27 13:41:35;;;;;;;8.40;6.32;;;19.60;54.50;;;;;;5051716;28;20036;-61
2022/04/27 13:44:19;;;;;;;7.03;5.65;;;19.40;54.80;;;;;;5036791;28;20496;-62
2022/04/27 13:47:03;;;;;;;6.95;6.22;;;19.10;55.30;;;;;;5035971;28;20097;-61
2022/04/27 13:49:48;;;;;;;;;;;19.10;56.30;;;;;;5052009;28;20032;-60
2022/04/27 13:52:32;;;;;;;8.30;7.05;;;18.70;57.80;;;;;;5054185;28;19916;-62
2022/04/27 13:55:17;;;;;;;9.43;7.95;;;18.50;58.30;;;;;;5060744;28;20083;-61
2022/04/27 13:58:01;;;;;;;7.72;6.75;;;18.30;58.70;;;;;;5061676;28;20674;-64
2022/04/27 14:00:46;;;;;;;9.82;7.22;;;18.20;59.10;;;;;;5039557;28;20381;-61
2022/04/27 14:03:30;;;;;;;8.88;6.57;;;18.70;58.70;;;;;;5051657;28;20392;-63
2022/04/27 14:06:18;;;;;;;8.27;6.55;;;19.10;57.50;;;;;;5036301;28;20742;-62
2022/04/27 14:09:02;;;;;;;8.57;6.55;;;19.00;57.60;;;;;;5051521;28;20086;-62
2022/04/27 14:14:50;;;;;;;7.55;6.75;;;19.50;57.40;;;;;;5040269;28;19943;-62
2022/04/27 14:20:39;;;;;;;7.53;5.88;;;19.30;55.90;;;;;;5051751;28;20551;-62
2022/04/27 14:23:23;;;;;;;6.25;5.53;;;19.10;55.70;;;;;;5035746;28;20036;-63
2022/04/27 14:26:07;;;;;;;8.68;6.15;;;19.00;55.30;;;;;;5035207;28;20040;-61
2022/04/27 14:28:51;;;;;;;5.82;5.10;;;19.00;55.90;;;;;;5051058;28;20167;-62
2022/04/27 14:31:35;;;;;;;7.10;5.50;;;19.50;55.70;;;;;;5037665;28;20036;-62
2022/04/27 14:34:19;;;;;;;10.25;6.63;;;20.00;55.20;;;;;;5035645;28;20120;-63
2022/04/27 14:37:03;;;;;;;7.65;6.10;;;20.50;54.00;;;;;;5036030;28;20048;-62
2022/04/27 14:39:48;;;;;;;9.25;6.80;;;20.70;55.10;;;;;;5036987;28;20028;-63
2022/04/27 14:42:32;;;;;;;7.90;5.63;;;20.30;55.80;;;;;;5053312;28;20032;-62